Time;durP1;ratioP1;P1;durP2;ratioP2;P2;SDS_P1;SDS_P2;PMS_P1;PMS_P2;Temp;Humidity;BMP_temperature;BMP_pressure;BME280_temperature;BME280_humidity;BME280_pressure;Samples;Min_cycle;Max_cycle;Signal;HPM_P1;HPM_P2
2023/09/18 00:00:21;;;;;;;30.38;20.83;;;;;;;24.03;53.82;100702.22;4984210;28;20098;-34
2023/09/18 00:02:48;;;;;;;27.48;20.00;;;;;;;24.03;53.90;100694.09;4986382;28;20331;-34
2023/09/18 00:05:15;;;;;;;24.88;18.90;;;;;;;24.02;53.80;100681.63;4981354;28;20109;-34
2023/09/18 00:07:43;;;;;;;28.30;19.63;;;;;;;24.01;54.01;100674.53;4983963;28;20120;-34
2023/09/18 00:10:10;;;;;;;28.35;20.73;;;;;;;24.00;53.54;100670.16;4985623;28;20065;-34
2023/09/18 00:12:38;;;;;;;25.80;19.23;;;;;;;24.00;53.67;100664.75;4985237;28;20054;-34
2023/09/18 00:15:08;;;;;;;28.85;19.95;;;;;;;24.00;53.73;100666.59;4984082;28;20442;-34
2023/09/18 00:17:36;;;;;;;27.75;20.08;;;;;;;24.00;53.66;100656.63;4985219;28;20058;-34
2023/09/18 00:20:06;;;;;;;26.10;18.45;;;;;;;24.00;53.87;100656.63;4986804;28;20112;-34
2023/09/18 00:22:33;;;;;;;25.90;19.27;;;;;;;24.00;53.57;100655.75;4986756;28;20050;-34
2023/09/18 00:25:01;;;;;;;27.83;19.58;;;;;;;23.99;53.62;100646.81;4987164;28;20050;-34
2023/09/18 00:27:28;;;;;;;25.73;18.70;;;;;;;23.99;53.47;100644.09;4986146;28;20132;-34
2023/09/18 00:29:55;;;;;;;26.50;18.17;;;;;;;23.99;53.62;100644.09;4981767;28;20058;-34
2023/09/18 00:32:22;;;;;;;27.13;19.63;;;;;;;23.99;53.88;100637.84;4983980;28;20042;-34
2023/09/18 00:34:48;;;;;;;27.17;18.98;;;;;;;23.99;53.57;100627.00;4981564;28;20046;-34
2023/09/18 00:37:16;;;;;;;27.73;17.75;;;;;;;23.99;53.46;100627.00;4986446;28;20162;-34
2023/09/18 00:39:44;;;;;;;24.95;17.95;;;;;;;23.97;53.28;100624.53;4981873;28;20054;-34
2023/09/18 00:42:13;;;;;;;23.88;17.95;;;;;;;23.98;53.15;100620.78;4983112;28;20046;-34
2023/09/18 00:44:41;;;;;;;26.98;18.75;;;;;;;23.98;53.24;100619.94;4980963;28;20427;-34
2023/09/18 00:47:08;;;;;;;24.75;18.05;;;;;;;23.97;53.38;100612.84;4981704;28;20272;-34
2023/09/18 00:49:38;;;;;;;26.95;19.38;;;;;;;23.97;53.00;100597.44;4983119;28;20434;-34
2023/09/18 00:52:06;;;;;;;24.15;16.98;;;;;;;23.97;53.74;100593.91;4981357;28;20054;-34
2023/09/18 00:54:35;;;;;;;24.02;17.60;;;;;;;23.97;53.21;100585.78;4981157;28;20043;-34
2023/09/18 00:57:02;;;;;;;25.23;17.98;;;;;;;23.97;53.65;100583.09;4981839;28;20100;-34
2023/09/18 00:59:29;;;;;;;24.92;17.92;;;;;;;23.97;53.58;100574.97;4980231;28;20375;-34
2023/09/18 01:01:56;;;;;;;24.23;16.67;;;;;;;23.95;52.83;100558.91;4983328;28;20141;-34
2023/09/18 01:04:26;;;;;;;24.48;17.38;;;;;;;23.95;53.39;100561.59;4983005;28;20319;-34
2023/09/18 01:06:54;;;;;;;23.95;16.88;;;;;;;23.96;53.58;100546.19;4981065;28;20149;-34
2023/09/18 01:09:20;;;;;;;22.17;16.08;;;;;;;23.96;53.78;100543.47;4982788;28;20096;-34
2023/09/18 01:12:02;;;;;;;24.15;16.63;;;;;;;23.94;53.12;100534.75;4982467;28;20105;-34
2023/09/18 01:14:37;;;;;;;22.17;16.00;;;;;;;23.95;53.60;100529.13;4981219;28;20054;-34
2023/09/18 01:17:05;;;;;;;22.83;16.45;;;;;;;23.95;53.62;100522.88;4982633;28;20058;-34
2023/09/18 01:19:36;;;;;;;23.33;16.88;;;;;;;23.94;53.61;100522.03;4982208;28;20078;-34
2023/09/18 01:22:04;;;;;;;22.77;16.90;;;;;;;23.93;53.46;100511.44;4981202;28;20434;-34
2023/09/18 01:24:36;;;;;;;21.35;16.20;;;;;;;23.94;53.34;100516.63;4977502;28;20061;-33
2023/09/18 01:27:06;;;;;;;20.95;16.10;;;;;;;23.94;53.31;100511.22;4984303;28;20050;-34
2023/09/18 01:29:33;;;;;;;22.33;15.55;;;;;;;23.94;53.20;100510.38;4985395;28;20519;-34
2023/09/18 01:32:00;;;;;;;22.65;16.55;;;;;;;23.93;53.38;100509.53;4984807;28;20659;-34
2023/09/18 01:34:48;;;;;;;22.98;16.90;;;;;;;23.92;53.10;100510.59;4982850;28;20060;-34
2023/09/18 01:37:17;;;;;;;22.08;15.70;;;;;;;23.93;53.54;100514.97;4987720;28;20100;-34
2023/09/18 01:39:45;;;;;;;21.75;15.70;;;;;;;23.93;53.01;100517.66;4982698;28;20430;-34
2023/09/18 01:42:12;;;;;;;21.30;15.40;;;;;;;23.93;53.06;100519.53;4985956;28;20342;-34
2023/09/18 01:44:39;;;;;;;21.58;15.55;;;;;;;23.93;53.60;100520.38;4988578;28;20058;-34
2023/09/18 01:47:08;;;;;;;21.02;15.32;;;;;;;23.92;53.59;100507.88;4988184;28;20081;-34
2023/09/18 01:49:36;;;;;;;20.35;15.02;;;;;;;23.92;53.49;100486.22;4991585;28;20105;-34
2023/09/18 01:52:04;;;;;;;20.73;15.35;;;;;;;23.93;52.99;100487.06;4989233;28;20054;-34
2023/09/18 01:54:32;;;;;;;21.15;15.30;;;;;;;23.92;52.87;100485.38;4984798;28;20046;-34
2023/09/18 01:56:59;;;;;;;21.65;15.95;;;;;;;23.92;53.52;100486.22;4987126;28;20420;-34
2023/09/18 01:59:25;;;;;;;20.48;15.27;;;;;;;23.93;53.24;100489.78;4988986;28;20059;-34
2023/09/18 02:01:53;;;;;;;20.13;14.68;;;;;;;23.92;53.24;100486.22;4985381;28;20054;-34
2023/09/18 02:04:22;;;;;;;18.88;13.88;;;;;;;23.92;53.19;100498.91;4987604;28;20403;-34
2023/09/18 02:07:09;;;;;;;19.92;14.90;;;;;;;23.93;53.28;100506.00;4985593;28;20086;-34
2023/09/18 02:09:36;;;;;;;20.00;14.48;;;;;;;23.91;53.41;100506.19;4983017;28;20443;-33
2023/09/18 02:12:04;;;;;;;18.50;14.63;;;;;;;23.91;52.83;100511.59;4983119;28;20348;-34
2023/09/18 02:14:31;;;;;;;19.88;13.88;;;;;;;23.91;53.06;100508.91;4983058;28;20057;-34
2023/09/18 02:16:58;;;;;;;20.15;14.02;;;;;;;23.92;53.07;100523.25;4985551;28;20133;-34
2023/09/18 02:19:26;;;;;;;20.85;13.88;;;;;;;23.92;53.30;100515.13;4985531;28;20047;-34
2023/09/18 02:21:55;;;;;;;18.20;13.57;;;;;;;23.92;52.84;100509.72;4983433;28;20050;-34
2023/09/18 02:24:23;;;;;;;19.08;13.88;;;;;;;23.91;53.23;100508.91;4984069;28;20187;-34
2023/09/18 02:26:50;;;;;;;18.20;13.52;;;;;;;23.91;53.47;100498.06;4984270;28;20490;-34
2023/09/18 02:29:16;;;;;;;16.67;12.57;;;;;;;23.91;52.88;100495.38;4985168;28;20097;-34
2023/09/18 02:31:43;;;;;;;17.75;13.10;;;;;;;23.92;53.03;100502.47;4985186;28;20399;-34
2023/09/18 02:34:10;;;;;;;18.35;13.30;;;;;;;23.90;52.94;100488.28;4986805;28;20054;-34
2023/09/18 02:36:37;;;;;;;16.98;12.70;;;;;;;23.90;53.22;100482.88;4985585;28;20050;-34
2023/09/18 02:39:03;;;;;;;18.15;12.98;;;;;;;23.91;53.46;100487.25;4983846;28;20050;-34
2023/09/18 02:41:30;;;;;;;18.00;13.48;;;;;;;23.91;53.54;100489.13;4984258;28;20069;-34
2023/09/18 02:43:57;;;;;;;16.33;12.30;;;;;;;23.91;53.59;100483.69;4986912;28;20057;-34
2023/09/18 02:46:23;;;;;;;16.08;11.93;;;;;;;23.90;52.75;100466.63;4987253;28;20073;-34
2023/09/18 02:48:50;;;;;;;18.13;12.55;;;;;;;23.91;53.07;100453.94;4983372;28;20058;-34
2023/09/18 02:51:17;;;;;;;16.77;12.38;;;;;;;23.91;52.89;100443.94;4984782;28;20451;-34
2023/09/18 02:53:44;;;;;;;18.10;12.45;;;;;;;23.90;52.80;100439.56;4980656;28;20054;-34
2023/09/18 02:56:10;;;;;;;16.40;11.63;;;;;;;23.89;53.04;100427.91;4983758;28;20137;-34
2023/09/18 02:58:37;;;;;;;16.42;12.40;;;;;;;23.90;53.31;100417.91;4989527;28;20358;-34
2023/09/18 03:01:06;;;;;;;16.65;11.88;;;;;;;23.90;53.26;100407.09;4981509;28;20054;-34
2023/09/18 03:03:33;;;;;;;15.13;11.38;;;;;;;23.89;52.78;100400.84;4981781;28;20050;-34
2023/09/18 03:06:02;;;;;;;15.75;11.40;;;;;;;23.89;52.82;100387.31;4984897;28;20046;-34
2023/09/18 03:08:28;;;;;;;16.92;12.40;;;;;;;23.91;53.44;100378.13;4985799;28;20429;-34
2023/09/18 03:10:55;;;;;;;15.52;11.63;;;;;;;23.89;52.82;100373.78;4983906;28;20061;-34
2023/09/18 03:13:22;;;;;;;14.88;11.63;;;;;;;23.89;52.95;100375.66;4981423;28;20058;-34
2023/09/18 03:15:49;;;;;;;17.75;12.18;;;;;;;23.90;53.09;100388.13;4981610;28;20119;-34
2023/09/18 03:18:16;;;;;;;15.85;12.13;;;;;;;23.89;52.80;100390.00;4982273;28;20093;-34
2023/09/18 03:20:42;;;;;;;14.52;11.32;;;;;;;23.89;53.09;100383.75;4977771;28;20051;-34
2023/09/18 03:23:09;;;;;;;16.30;11.15;;;;;;;23.88;53.25;100382.94;4986677;28;20098;-34
2023/09/18 03:25:37;;;;;;;15.77;11.45;;;;;;;23.89;53.27;100365.66;4984666;28;20335;-34
2023/09/18 03:28:16;;;;;;;15.77;11.73;;;;;;;23.89;52.91;100364.81;4985945;28;20046;-34
2023/09/18 03:30:43;;;;;;;14.50;11.15;;;;;;;23.88;52.60;100382.94;4984195;28;20411;-34
2023/09/18 03:33:10;;;;;;;14.68;11.13;;;;;;;23.87;52.68;100397.47;4981619;28;20058;-34
2023/09/18 03:35:50;;;;;;;14.75;10.68;;;;;;;23.88;52.51;100392.94;4983246;28;20049;-34
2023/09/18 03:38:17;;;;;;;15.10;11.25;;;;;;;23.87;53.12;100391.25;4981726;28;20050;-34
2023/09/18 03:40:44;;;;;;;14.15;11.10;;;;;;;23.88;52.99;100395.63;4984154;28;21669;-34
2023/09/18 03:43:12;;;;;;;15.40;11.10;;;;;;;23.87;53.03;100380.41;4982670;28;20047;-34
2023/09/18 03:45:42;;;;;;;15.93;11.52;;;;;;;23.86;52.95;100390.41;4984365;28;20046;-34
2023/09/18 03:48:10;;;;;;;13.50;10.43;;;;;;;23.87;52.55;100385.81;4982282;28;20054;-34
2023/09/18 03:50:38;;;;;;;14.65;10.27;;;;;;;23.86;52.63;100400.41;4983022;28;20354;-34
2023/09/18 03:53:05;;;;;;;14.65;10.77;;;;;;;23.86;52.84;100401.22;4981642;28;20386;-34
2023/09/18 03:55:32;;;;;;;14.43;10.23;;;;;;;23.86;53.08;100395.81;4981261;28;20058;-34
2023/09/18 03:58:00;;;;;;;13.70;9.65;;;;;;;23.86;52.85;100384.16;4984245;28;20050;-34
2023/09/18 04:00:27;;;;;;;13.30;10.27;;;;;;;23.86;52.67;100389.56;4984337;28;20081;-34
2023/09/18 04:02:53;;;;;;;14.00;9.90;;;;;;;23.86;52.56;100389.56;4983235;28;20039;-34
2023/09/18 04:05:20;;;;;;;11.95;9.30;;;;;;;23.86;52.84;100395.00;4982567;28;20124;-34
2023/09/18 04:07:47;;;;;;;13.68;10.05;;;;;;;23.85;52.76;100402.28;4983373;28;20403;-34
2023/09/18 04:10:22;;;;;;;12.63;9.55;;;;;;;23.84;53.28;100407.88;4985710;28;20050;-34
2023/09/18 04:12:51;;;;;;;12.95;9.70;;;;;;;23.85;52.65;100409.56;4980983;28;20038;-34
2023/09/18 04:15:18;;;;;;;12.50;8.82;;;;;;;23.82;53.40;100412.66;4979282;28;20058;-34
2023/09/18 04:17:45;;;;;;;16.60;9.32;;;;;;;23.80;53.21;100317.31;4984967;28;20093;-35
2023/09/18 04:20:13;;;;;;;12.70;8.02;;;;;;;23.78;53.54;100338.34;4985027;28;20442;-35
2023/09/18 04:22:44;;;;;;;12.27;8.15;;;;;;;23.74;53.19;100364.13;4982795;28;20116;-35
2023/09/18 04:25:12;;;;;;;11.23;8.05;;;;;;;23.73;53.58;100362.47;4985490;28;20068;-35
2023/09/18 04:27:39;;;;;;;10.98;8.18;;;;;;;23.71;53.99;100367.25;4983542;28;20058;-35
2023/09/18 04:30:08;;;;;;;12.63;8.50;;;;;;;23.70;53.62;100352.88;4979797;28;20069;-35
2023/09/18 04:32:37;;;;;;;10.45;7.90;;;;;;;23.69;53.88;100342.28;4980201;28;20516;-35
2023/09/18 04:35:05;;;;;;;9.52;7.55;;;;;;;23.70;53.85;100327.69;4983936;28;20046;-35
2023/09/18 04:37:37;;;;;;;11.48;8.00;;;;;;;23.69;53.41;100331.44;4979546;28;20082;-35
2023/09/18 04:40:11;;;;;;;10.25;7.75;;;;;;;23.69;53.54;100321.47;4983422;28;20427;-35
2023/09/18 04:42:39;;;;;;;11.13;8.02;;;;;;;23.69;53.89;100305.22;4983429;28;20039;-35
2023/09/18 04:45:07;;;;;;;10.73;7.57;;;;;;;23.70;54.00;100300.66;4979120;28;20051;-35
2023/09/18 04:47:33;;;;;;;10.50;7.60;;;;;;;23.70;53.47;100297.94;4979850;28;20050;-36
2023/09/18 04:50:00;;;;;;;11.82;7.63;;;;;;;23.71;53.58;100283.34;4981179;28;20097;-35
2023/09/18 04:52:27;;;;;;;12.40;8.18;;;;;;;23.70;53.49;100271.72;4982098;28;20104;-35
2023/09/18 04:54:54;;;;;;;10.30;7.45;;;;;;;23.71;53.47;100269.84;4980537;28;20100;-35
2023/09/18 04:57:22;;;;;;;10.57;7.78;;;;;;;23.70;53.24;100260.88;4975257;28;20054;-35
2023/09/18 04:59:49;;;;;;;11.00;7.82;;;;;;;23.71;53.60;100267.94;4979175;28;20489;-35
2023/09/18 05:02:36;;;;;;;11.23;8.07;;;;;;;23.72;53.32;100258.81;4981453;28;20054;-35
2023/09/18 05:05:03;;;;;;;11.63;7.13;;;;;;;23.72;53.16;100264.22;4984576;28;20062;-35
2023/09/18 05:07:31;;;;;;;11.50;7.90;;;;;;;23.71;53.42;100267.94;4990995;28;20050;-35
2023/09/18 05:09:58;;;;;;;9.18;7.13;;;;;;;23.71;53.51;100273.38;4986867;28;20116;-35
2023/09/18 05:12:24;;;;;;;10.55;7.70;;;;;;;23.71;53.51;100277.94;4987087;28;20070;-35
2023/09/18 05:14:51;;;;;;;8.93;7.13;;;;;;;23.71;53.58;100284.19;4980867;28;20109;-35
2023/09/18 05:17:18;;;;;;;9.18;7.18;;;;;;;23.72;53.59;100287.72;4982949;28;20130;-35
2023/09/18 05:19:45;;;;;;;9.52;6.80;;;;;;;23.71;53.34;100296.88;4983343;28;20050;-35
2023/09/18 05:22:12;;;;;;;9.02;6.95;;;;;;;23.71;53.58;100299.59;4979918;28;20055;-35
2023/09/18 05:24:39;;;;;;;9.77;6.97;;;;;;;23.72;53.78;100303.97;4983153;28;20050;-35
2023/09/18 05:27:07;;;;;;;9.57;7.05;;;;;;;23.72;53.16;100306.66;4988000;28;20054;-35
2023/09/18 05:29:37;;;;;;;10.25;6.97;;;;;;;23.71;53.24;100300.44;4986538;28;20046;-35
2023/09/18 05:32:04;;;;;;;8.95;6.72;;;;;;;23.71;53.80;100310.41;4984711;28;20121;-35
2023/09/18 05:34:31;;;;;;;10.70;7.25;;;;;;;23.71;53.27;100322.06;4982149;28;20053;-36
2023/09/18 05:36:58;;;;;;;9.98;7.15;;;;;;;23.70;53.69;100317.72;4985028;28;20430;-36
2023/09/18 05:39:25;;;;;;;10.55;7.47;;;;;;;23.71;53.41;100318.53;4983966;28;20336;-36
2023/09/18 05:41:52;;;;;;;8.65;6.70;;;;;;;23.70;53.41;100323.13;4995447;28;20053;-36
2023/09/18 05:44:18;;;;;;;9.05;6.75;;;;;;;23.71;53.01;100329.34;4982533;28;20618;-35
2023/09/18 05:46:45;;;;;;;9.50;6.35;;;;;;;23.70;52.95;100328.53;4978324;28;20074;-35
2023/09/18 05:49:12;;;;;;;8.88;6.78;;;;;;;23.71;53.47;100329.34;4982207;28;20058;-34
2023/09/18 05:51:39;;;;;;;10.15;7.03;;;;;;;23.72;53.18;100320.19;4986055;28;20117;-35
2023/09/18 05:54:05;;;;;;;8.77;6.60;;;;;;;23.71;52.99;100322.06;4983921;28;20346;-35
2023/09/18 05:56:33;;;;;;;9.05;6.60;;;;;;;23.72;53.03;100322.91;4980520;28;20094;-35
2023/09/18 05:59:00;;;;;;;8.93;7.00;;;;;;;23.72;53.52;100312.06;4984845;28;20054;-35
2023/09/18 06:01:27;;;;;;;11.07;6.85;;;;;;;23.72;52.87;100320.19;4982228;28;20062;-35
2023/09/18 06:03:54;;;;;;;10.63;6.45;;;;;;;23.71;53.41;100319.38;4984117;28;20378;-36
2023/09/18 06:06:21;;;;;;;9.07;6.38;;;;;;;23.72;53.34;100321.06;4983349;28;20051;-35
2023/09/18 06:08:48;;;;;;;9.68;6.85;;;;;;;23.72;53.30;100325.59;4982040;28;20374;-35
2023/09/18 06:11:14;;;;;;;10.77;7.20;;;;;;;23.72;53.57;100339.13;4981678;28;20082;-36
2023/09/18 06:13:41;;;;;;;10.23;6.20;;;;;;;23.72;53.37;100323.75;4990638;28;20061;-36
2023/09/18 06:16:08;;;;;;;10.30;6.45;;;;;;;23.72;52.93;100317.50;4984449;28;20047;-36
2023/09/18 06:18:37;;;;;;;8.20;6.10;;;;;;;23.73;53.21;100338.13;4983616;28;20157;-36
2023/09/18 06:21:05;;;;;;;9.43;6.55;;;;;;;23.73;52.86;100338.13;4981091;28;20343;-36
2023/09/18 06:23:32;;;;;;;9.25;6.85;;;;;;;23.73;53.29;100332.72;4988208;28;20049;-36
2023/09/18 06:25:59;;;;;;;8.25;6.05;;;;;;;23.74;53.39;100331.66;4981805;28;20055;-36
2023/09/18 06:28:26;;;;;;;10.40;6.05;;;;;;;23.72;53.02;100329.19;4982612;28;20053;-36
2023/09/18 06:30:53;;;;;;;7.95;5.95;;;;;;;23.73;53.12;100327.31;4984576;28;20054;-36
2023/09/18 06:33:21;;;;;;;10.25;6.28;;;;;;;23.73;53.27;100325.44;4988074;28;20046;-35
2023/09/18 06:35:48;;;;;;;8.15;6.30;;;;;;;23.73;53.43;100325.44;4984921;28;20074;-35
2023/09/18 06:38:15;;;;;;;6.85;5.38;;;;;;;23.72;53.08;100314.78;4984635;28;20065;-36
2023/09/18 06:40:42;;;;;;;8.05;5.63;;;;;;;23.73;53.40;100321.88;4985067;28;20046;-36
2023/09/18 06:43:08;;;;;;;8.48;6.07;;;;;;;23.74;52.99;100324.38;4983617;28;20050;-36
2023/09/18 06:45:37;;;;;;;7.50;5.55;;;;;;;23.73;53.01;100309.19;4987486;28;20047;-36
2023/09/18 06:48:05;;;;;;;7.55;5.72;;;;;;;23.73;52.86;100309.19;4981723;28;20104;-36
2023/09/18 06:50:31;;;;;;;8.32;5.82;;;;;;;23.73;53.04;100309.19;4981195;28;20054;-36
2023/09/18 06:52:58;;;;;;;7.50;5.70;;;;;;;23.75;53.35;100311.69;5013308;28;20054;-35
2023/09/18 06:55:25;;;;;;;8.15;6.07;;;;;;;23.74;53.07;100320.84;4980802;28;20058;-35
2023/09/18 06:57:52;;;;;;;7.13;5.18;;;;;;;23.74;52.91;100327.09;4981310;28;20109;-35
2023/09/18 07:00:20;;;;;;;8.90;5.60;;;;;;;23.75;53.39;100322.50;4978597;28;20058;-35
2023/09/18 07:02:49;;;;;;;7.05;5.07;;;;;;;23.74;52.92;100329.78;4981187;28;20055;-35
2023/09/18 07:05:16;;;;;;;7.50;5.10;;;;;;;23.74;53.45;100329.78;4985212;28;20061;-36
2023/09/18 07:07:43;;;;;;;7.32;5.47;;;;;;;23.74;53.17;100327.09;4988964;28;20073;-35
2023/09/18 07:10:10;;;;;;;6.93;5.30;;;;;;;23.75;53.54;100326.03;4981753;28;20054;-35
2023/09/18 07:12:37;;;;;;;6.45;4.88;;;;;;;23.75;53.14;100311.69;5016399;28;20137;-35
2023/09/18 07:15:04;;;;;;;5.93;4.70;;;;;;;23.75;53.56;100315.22;4983657;28;20050;-35
2023/09/18 07:17:32;;;;;;;8.10;4.97;;;;;;;23.75;53.56;100328.75;4982344;28;20074;-35
2023/09/18 07:19:59;;;;;;;7.43;5.60;;;;;;;23.77;53.17;100317.75;4984552;28;20047;-35
2023/09/18 07:22:26;;;;;;;8.15;5.50;;;;;;;23.76;53.03;100318.75;4984224;28;20058;-35
2023/09/18 07:24:56;;;;;;;5.90;4.43;;;;;;;23.77;53.38;100315.03;4979429;28;20049;-35
2023/09/18 07:27:23;;;;;;;6.97;4.57;;;;;;;23.77;53.13;100323.16;4978813;28;20059;-35
2023/09/18 07:29:49;;;;;;;5.55;4.47;;;;;;;23.77;53.38;100321.28;4981138;28;20057;-35
2023/09/18 07:32:16;;;;;;;6.63;4.75;;;;;;;23.78;53.70;100313.97;4982811;28;20066;-35
2023/09/18 07:35:04;;;;;;;7.10;4.60;;;;;;;23.79;53.61;100302.13;5007065;28;20050;-35
2023/09/18 07:37:31;;;;;;;6.45;4.35;;;;;;;23.79;53.76;100299.41;4983960;28;20062;-35
2023/09/18 07:39:58;;;;;;;7.20;4.20;;;;;;;23.79;53.93;100300.25;4986496;28;20047;-35
2023/09/18 07:42:25;;;;;;;7.25;4.10;;;;;;;23.81;53.49;100310.88;4984556;28;20054;-35
2023/09/18 07:44:53;;;;;;;5.10;4.15;;;;;;;23.81;53.97;100319.00;4984215;28;20038;-35
2023/09/18 07:47:22;;;;;;;5.75;4.30;;;;;;;23.82;53.46;100326.06;4982340;28;20074;-35
2023/09/18 07:49:50;;;;;;;5.13;3.70;;;;;;;23.84;53.34;100326.69;4984706;28;20046;-35
2023/09/18 07:52:17;;;;;;;7.05;3.58;;;;;;;23.82;53.82;100326.06;4982669;28;20050;-35
2023/09/18 07:54:44;;;;;;;6.88;4.20;;;;;;;23.83;53.88;100325.84;4983779;28;20046;-35
2023/09/18 07:57:11;;;;;;;5.63;4.20;;;;;;;23.85;53.83;100336.50;4979149;28;20063;-35
2023/09/18 07:59:39;;;;;;;5.82;3.88;;;;;;;23.86;53.84;100343.56;4980488;28;20427;-35
2023/09/18 08:02:06;;;;;;;5.07;4.03;;;;;;;23.86;53.66;100340.84;4979325;28;20125;-35
2023/09/18 08:04:33;;;;;;;6.88;4.70;;;;;;;23.87;54.19;100345.22;4978718;28;20421;-35
2023/09/18 08:07:00;;;;;;;6.70;3.90;;;;;;;23.87;54.09;100358.75;4981113;28;20347;-35
2023/09/18 08:09:29;;;;;;;4.38;3.65;;;;;;;23.87;53.80;100359.59;4980989;28;20323;-35
2023/09/18 08:11:56;;;;;;;5.85;3.90;;;;;;;23.89;53.68;100359.41;4987873;28;20065;-35
2023/09/18 08:14:23;;;;;;;5.68;3.70;;;;;;;23.89;53.84;100359.41;4988006;28;20419;-35
2023/09/18 08:16:57;;;;;;;5.82;4.18;;;;;;;23.88;53.98;100358.56;4984243;28;20054;-35
2023/09/18 08:19:26;;;;;;;6.00;4.18;;;;;;;23.89;54.36;100362.13;4982522;28;20046;-35
2023/09/18 08:21:54;;;;;;;7.22;3.30;;;;;;;23.88;54.34;100355.88;4978917;28;20070;-35
2023/09/18 08:24:21;;;;;;;5.20;3.38;;;;;;;23.90;54.30;100358.34;4978387;28;20046;-35
2023/09/18 08:26:47;;;;;;;4.50;3.50;;;;;;;23.89;54.21;100360.22;4984836;28;20051;-35
2023/09/18 08:29:15;;;;;;;4.35;3.65;;;;;;;23.91;54.48;100357.31;4982743;28;20062;-35
2023/09/18 08:31:42;;;;;;;4.63;2.83;;;;;;;23.91;54.63;100365.44;4979888;28;20078;-35
2023/09/18 08:34:09;;;;;;;5.72;3.33;;;;;;;23.92;54.50;100369.84;4978902;28;20059;-35
2023/09/18 08:36:36;;;;;;;5.88;3.08;;;;;;;23.93;54.42;100367.94;4983131;28;20425;-35
2023/09/18 08:39:05;;;;;;;4.65;3.20;;;;;;;23.95;54.49;100376.69;4983383;28;20058;-35
2023/09/18 08:41:35;;;;;;;5.97;3.50;;;;;;;23.95;54.36;100368.56;4985207;28;20104;-35
2023/09/18 08:44:03;;;;;;;5.28;2.80;;;;;;;23.95;55.22;100374.81;4988926;28;20070;-35
2023/09/18 08:46:31;;;;;;;5.15;3.15;;;;;;;23.97;54.37;100389.00;4991005;28;20050;-35
2023/09/18 08:49:00;;;;;;;5.85;3.17;;;;;;;23.99;54.71;100378.78;4991823;28;20054;-35
2023/09/18 08:51:28;;;;;;;6.32;3.47;;;;;;;24.01;54.84;100379.44;4986205;28;20537;-35
2023/09/18 08:53:56;;;;;;;5.05;2.95;;;;;;;24.02;54.47;100383.78;5017584;28;20069;-35
2023/09/18 08:56:23;;;;;;;7.43;3.08;;;;;;;24.03;54.78;100390.88;5017552;28;20453;-36
2023/09/18 08:58:50;;;;;;;3.45;2.75;;;;;;;24.06;54.98;100389.63;4988119;28;20103;-35
2023/09/18 09:01:17;;;;;;;3.78;2.72;;;;;;;24.08;54.70;100382.13;4983724;28;20524;-35
2023/09/18 09:03:47;;;;;;;5.75;2.60;;;;;;;24.09;54.77;100398.19;4986333;28;20050;-35
2023/09/18 09:06:14;;;;;;;4.35;2.65;;;;;;;24.11;54.58;100396.09;4983734;28;20141;-35
2023/09/18 09:08:40;;;;;;;6.18;2.65;;;;;;;24.12;54.37;100419.44;4984949;28;20657;-35
2023/09/18 09:11:07;;;;;;;4.82;2.70;;;;;;;24.14;54.25;100411.09;5014975;28;20050;-33
2023/09/18 09:13:34;;;;;;;3.45;2.78;;;;;;;24.15;54.03;100429.00;5015109;28;20347;-33
2023/09/18 09:16:13;;;;;;;4.85;2.90;;;;;;;24.15;54.22;100412.78;4985661;28;20046;-34
2023/09/18 09:18:50;;;;;;;6.75;2.55;;;;;;;24.17;54.49;100418.00;4983724;28;20862;-34
2023/09/18 09:21:18;;;;;;;5.00;2.45;;;;;;;24.19;54.21;100421.31;4988122;28;20085;-34
2023/09/18 09:23:55;;;;;;;3.58;2.17;;;;;;;24.18;54.10;100415.06;4982779;28;20191;-34
2023/09/18 09:26:23;;;;;;;3.38;2.22;;;;;;;24.18;53.51;100425.91;4984328;28;20058;-34
2023/09/18 09:28:50;;;;;;;4.07;2.58;;;;;;;24.18;53.99;100423.19;4983642;28;20271;-34
2023/09/18 09:31:28;;;;;;;3.28;2.15;;;;;;;24.18;54.05;100435.91;4987127;28;20435;-34
2023/09/18 09:33:56;;;;;;;3.85;2.10;;;;;;;24.19;54.28;100434.88;4982089;28;20049;-34
2023/09/18 09:36:24;;;;;;;3.38;2.17;;;;;;;24.17;53.57;100443.19;4983753;28;20176;-34
2023/09/18 09:39:00;;;;;;;3.20;2.00;;;;;;;24.17;53.84;100442.38;4984419;28;20365;-34
2023/09/18 09:41:30;;;;;;;4.93;2.45;;;;;;;24.17;54.06;100445.09;4987522;28;20077;-34
2023/09/18 09:43:58;;;;;;;3.15;2.05;;;;;;;24.15;54.33;100450.69;4984476;28;20043;-34
2023/09/18 09:46:27;;;;;;;2.85;2.30;;;;;;;24.13;54.39;100456.31;4984666;28;20055;-34
2023/09/18 09:49:12;;;;;;;3.92;2.17;;;;;;;24.12;54.07;100457.34;5010434;28;20129;-35
2023/09/18 09:51:41;;;;;;;3.97;1.95;;;;;;;24.13;54.00;100459.03;4990060;28;20491;-34
2023/09/18 09:54:08;;;;;;;4.03;2.17;;;;;;;24.13;53.67;100455.47;4990654;28;20050;-34
2023/09/18 09:56:43;;;;;;;5.20;1.90;;;;;;;24.12;53.90;100460.06;4985669;28;20061;-34
2023/09/18 09:59:11;;;;;;;3.35;2.15;;;;;;;24.13;53.94;100460.91;4979897;28;20050;-34
2023/09/18 10:01:40;;;;;;;2.80;1.88;;;;;;;24.12;54.27;100451.94;5015439;28;20053;-34
2023/09/18 10:04:17;;;;;;;2.65;1.88;;;;;;;24.11;54.26;100457.53;4983566;28;20096;-35
2023/09/18 10:06:50;;;;;;;3.50;2.00;;;;;;;24.12;53.91;100454.66;4985459;28;20061;-35
2023/09/18 10:09:19;;;;;;;3.45;1.95;;;;;;;24.12;53.86;100460.06;4984455;28;20202;-35
2023/09/18 10:11:51;;;;;;;2.97;2.03;;;;;;;24.13;54.00;100452.78;5015703;28;20133;-35
2023/09/18 10:14:26;;;;;;;2.88;1.80;;;;;;;24.13;54.16;100459.03;4986197;28;20058;-35
2023/09/18 10:16:57;;;;;;;4.03;1.92;;;;;;;24.13;53.70;100463.59;4986374;28;20097;-35
2023/09/18 10:19:43;;;;;;;2.70;1.73;;;;;;;24.12;53.46;100456.50;4983967;28;20046;-35
2023/09/18 10:22:22;;;;;;;2.97;1.73;;;;;;;24.14;53.65;100457.16;4984259;28;20086;-35
2023/09/18 10:24:54;;;;;;;2.40;2.00;;;;;;;24.13;54.29;100464.44;4992061;28;20042;-35
2023/09/18 10:27:24;;;;;;;4.13;1.92;;;;;;;24.15;54.34;100464.22;4985082;28;20106;-35
2023/09/18 10:29:52;;;;;;;3.67;2.00;;;;;;;24.18;53.99;100457.56;4983695;28;20401;-35
2023/09/18 10:32:20;;;;;;;5.07;2.28;;;;;;;24.20;53.57;100460.91;4982087;28;20509;-35
2023/09/18 10:34:47;;;;;;;3.75;1.77;;;;;;;24.22;53.48;100456.97;4981772;28;20046;-35
2023/09/18 10:37:15;;;;;;;3.92;1.80;;;;;;;24.24;53.79;100454.03;4980074;28;20501;-35
2023/09/18 10:39:44;;;;;;;3.55;1.80;;;;;;;24.26;53.72;100462.81;4979860;28;20062;-35
2023/09/18 10:42:13;;;;;;;2.53;1.85;;;;;;;24.29;53.74;100457.00;4982532;28;20101;-35
2023/09/18 10:44:41;;;;;;;5.47;2.08;;;;;;;24.31;53.74;100457.59;4980982;28;20113;-35
2023/09/18 10:47:10;;;;;;;3.28;1.70;;;;;;;24.34;53.72;100455.31;4983708;28;20438;-35
2023/09/18 10:49:36;;;;;;;3.38;1.80;;;;;;;24.39;53.03;100446.59;4982924;28;20242;-35
2023/09/18 10:52:03;;;;;;;2.67;1.40;;;;;;;24.44;53.51;100445.97;4979951;28;20143;-35
2023/09/18 10:54:31;;;;;;;3.58;2.20;;;;;;;24.46;53.28;100442.03;4979913;28;20057;-35
2023/09/18 10:56:58;;;;;;;2.75;1.73;;;;;;;24.49;52.99;100451.66;4982839;28;20062;-35
2023/09/18 10:59:27;;;;;;;3.63;1.55;;;;;;;24.50;53.38;100450.59;4988086;28;20101;-35
2023/09/18 11:01:54;;;;;;;6.05;1.65;;;;;;;24.52;52.78;100457.50;4985108;28;20446;-35
2023/09/18 11:04:22;;;;;;;3.20;1.90;;;;;;;24.53;53.04;100456.44;4982602;28;20049;-35
2023/09/18 11:06:55;;;;;;;4.43;1.70;;;;;;;24.52;53.30;100435.81;4984761;28;20359;-35
2023/09/18 11:09:31;;;;;;;2.17;1.48;;;;;;;24.53;53.13;100461.03;4982423;28;20093;-35
2023/09/18 11:12:02;;;;;;;2.78;1.77;;;;;;;24.54;52.80;100455.38;4979786;28;20073;-35
2023/09/18 11:14:57;;;;;;;3.13;1.60;;;;;;;24.53;52.53;100456.44;4978305;28;20096;-35
2023/09/18 11:17:38;;;;;;;2.53;1.48;;;;;;;24.56;52.83;100449.75;4983889;28;20057;-35
2023/09/18 11:20:09;;;;;;;3.38;1.60;;;;;;;24.57;52.51;100443.31;4984940;28;20394;-35
2023/09/18 11:22:37;;;;;;;2.70;1.75;;;;;;;24.58;52.96;100447.69;4986745;28;20062;-34
2023/09/18 11:25:30;;;;;;;6.13;2.20;;;;;;;24.59;53.00;100442.06;4982688;28;20212;-35